Time;durP1;ratioP1;P1;durP2;ratioP2;P2;SDS_P1;SDS_P2;PMS_P1;PMS_P2;Temp;Humidity;BMP_temperature;BMP_pressure;BME280_temperature;BME280_humidity;BME280_pressure;Samples;Min_cycle;Max_cycle;Signal;HPM_P1;HPM_P2
2023/03/23 00:01:56;;;;;;;19.73;18.43;;;;;;;;;;5013432;28;20442;-83
2023/03/23 00:04:26;;;;;;;18.40;17.50;;;;;;;;;;5015247;28;20433;-83
2023/03/23 00:06:55;;;;;;;19.20;18.20;;;;;;;;;;5015788;28;20437;-83
2023/03/23 00:09:23;;;;;;;19.93;18.83;;;;;;;;;;5017824;28;20480;-83
2023/03/23 00:11:52;;;;;;;19.73;18.50;;;;;;;;;;5017989;28;20887;-83
2023/03/23 00:14:22;;;;;;;20.30;19.00;;;;;;;;;;5018513;28;20437;-83
2023/03/23 00:16:50;;;;;;;19.50;18.40;;;;;;;;;;5017635;28;20411;-83
2023/03/23 00:19:19;;;;;;;20.80;19.50;;;;;;;;;;5022839;28;20488;-83
2023/03/23 00:21:46;;;;;;;20.27;19.07;;;;;;;;;;5017921;28;20464;-83
2023/03/23 00:24:16;;;;;;;20.60;19.20;;;;;;;;;;5017541;28;20464;-83
2023/03/23 00:26:44;;;;;;;19.80;18.70;;;;;;;;;;5017326;28;20443;-83
2023/03/23 00:29:14;;;;;;;20.57;19.47;;;;;;;;;;5017369;28;20447;-83
2023/03/23 00:31:41;;;;;;;19.13;18.10;;;;;;;;;;5017674;28;20848;-83
2023/03/23 00:34:12;;;;;;;20.47;19.30;;;;;;;;;;5018237;28;20427;-83
2023/03/23 00:36:44;;;;;;;20.93;19.73;;;;;;;;;;5017676;28;20411;-83
2023/03/23 00:39:12;;;;;;;21.07;19.80;;;;;;;;;;5017485;28;20475;-83
2023/03/23 00:41:40;;;;;;;20.80;19.70;;;;;;;;;;5017765;28;20859;-83
2023/03/23 00:44:08;;;;;;;20.63;19.30;;;;;;;;;;5018115;28;20839;-83
2023/03/23 00:46:44;;;;;;;21.07;19.87;;;;;;;;;;5024431;28;20431;-83
2023/03/23 00:49:12;;;;;;;20.50;19.37;;;;;;;;;;5027858;28;20472;-84
2023/03/23 00:51:39;;;;;;;20.97;19.60;;;;;;;;;;5030462;28;20455;-83
2023/03/23 00:54:06;;;;;;;21.30;20.20;;;;;;;;;;5021167;28;20504;-83
2023/03/23 00:56:33;;;;;;;22.00;20.70;;;;;;;;;;5016708;28;20436;-83
2023/03/23 00:59:02;;;;;;;21.10;20.10;;;;;;;;;;5018429;28;20891;-83
2023/03/23 01:01:29;;;;;;;19.30;18.40;;;;;;;;;;5017345;28;20793;-83
2023/03/23 01:04:00;;;;;;;21.60;20.43;;;;;;;;;;5017421;28;20573;-83
2023/03/23 01:06:28;;;;;;;20.87;19.77;;;;;;;;;;5016653;28;20411;-83
2023/03/23 01:08:56;;;;;;;20.47;19.40;;;;;;;;;;5016582;28;20547;-83
2023/03/23 01:11:24;;;;;;;21.47;20.17;;;;;;;;;;5017165;28;20440;-83
2023/03/23 01:13:51;;;;;;;21.10;19.70;;;;;;;;;;5016674;28;20517;-83
2023/03/23 01:16:20;;;;;;;19.40;18.40;;;;;;;;;;5016374;28;20925;-83
2023/03/23 01:18:47;;;;;;;20.70;19.43;;;;;;;;;;5015258;28;20467;-83
2023/03/23 01:21:15;;;;;;;20.60;19.40;;;;;;;;;;5016426;28;20451;-83
2023/03/23 01:23:43;;;;;;;20.77;19.57;;;;;;;;;;5016982;28;20431;-82
2023/03/23 01:26:11;;;;;;;18.40;17.50;;;;;;;;;;5016869;28;20415;-83
2023/03/23 01:28:38;;;;;;;20.00;19.00;;;;;;;;;;5016812;28;20862;-83
2023/03/23 01:31:06;;;;;;;20.10;18.90;;;;;;;;;;5015926;28;20461;-83
2023/03/23 01:33:35;;;;;;;20.63;19.00;;;;;;;;;;5017017;28;20431;-83
2023/03/23 01:36:04;;;;;;;19.17;18.23;;;;;;;;;;5016203;28;20467;-83
2023/03/23 01:38:31;;;;;;;20.60;19.50;;;;;;;;;;5016646;28;20871;-83
2023/03/23 01:40:58;;;;;;;19.27;17.90;;;;;;;;;;5016660;28;20480;-83
2023/03/23 01:43:26;;;;;;;19.90;18.80;;;;;;;;;;5017949;28;21060;-83
2023/03/23 01:45:53;;;;;;;19.60;18.50;;;;;;;;;;5022351;28;20411;-83
2023/03/23 01:48:22;;;;;;;20.67;19.17;;;;;;;;;;5016382;28;20498;-83
2023/03/23 01:50:55;;;;;;;20.17;19.03;;;;;;;;;;5016414;28;20457;-83
2023/03/23 01:53:23;;;;;;;20.13;19.00;;;;;;;;;;5016775;28;20527;-83
2023/03/23 01:55:52;;;;;;;19.97;18.97;;;;;;;;;;5016031;28;20463;-83
2023/03/23 01:58:21;;;;;;;18.73;17.63;;;;;;;;;;5015773;28;20529;-83
2023/03/23 02:00:48;;;;;;;18.97;17.97;;;;;;;;;;5016451;28;20486;-83
2023/03/23 02:03:17;;;;;;;19.50;18.60;;;;;;;;;;5016857;28;20456;-83
2023/03/23 02:05:44;;;;;;;19.80;18.80;;;;;;;;;;5016327;28;20460;-83
2023/03/23 02:08:13;;;;;;;19.47;18.47;;;;;;;;;;5016693;28;20446;-83
2023/03/23 02:10:40;;;;;;;20.00;18.90;;;;;;;;;;5017005;28;20491;-83
2023/03/23 02:13:09;;;;;;;19.87;18.30;;;;;;;;;;5031790;28;20452;-82
2023/03/23 02:15:41;;;;;;;20.03;18.80;;;;;;;;;;5033600;28;20423;-83
2023/03/23 02:18:11;;;;;;;18.10;17.20;;;;;;;;;;5031602;28;20897;-83
2023/03/23 02:20:44;;;;;;;19.67;18.57;;;;;;;;;;5016783;28;20868;-83
2023/03/23 02:23:20;;;;;;;19.40;18.30;;;;;;;;;;5016099;28;20795;-83
2023/03/23 02:25:54;;;;;;;18.20;17.30;;;;;;;;;;5015362;28;21132;-83
2023/03/23 02:28:30;;;;;;;18.00;17.10;;;;;;;;;;5015363;28;20493;-84
2023/03/23 02:31:03;;;;;;;18.43;17.53;;;;;;;;;;5017629;28;20491;-84
2023/03/23 02:33:40;;;;;;;19.67;18.47;;;;;;;;;;5019009;28;20925;-84
2023/03/23 02:36:12;;;;;;;19.53;18.50;;;;;;;;;;5017176;28;20433;-83
2023/03/23 02:38:42;;;;;;;20.10;19.10;;;;;;;;;;5016565;28;20972;-83
2023/03/23 02:41:10;;;;;;;20.13;19.13;;;;;;;;;;5017404;28;20431;-83
2023/03/23 02:43:39;;;;;;;21.43;20.17;;;;;;;;;;5017433;28;20489;-84
2023/03/23 02:46:08;;;;;;;20.80;19.70;;;;;;;;;;5018429;28;20427;-83
2023/03/23 02:48:37;;;;;;;21.50;20.40;;;;;;;;;;5017212;28;20860;-83
2023/03/23 02:51:06;;;;;;;20.90;19.70;;;;;;;;;;5016223;28;20427;-83
2023/03/23 02:53:34;;;;;;;22.93;21.63;;;;;;;;;;5015909;28;20489;-83
2023/03/23 02:56:02;;;;;;;21.93;20.83;;;;;;;;;;5016041;28;20941;-84
2023/03/23 02:58:31;;;;;;;21.83;20.77;;;;;;;;;;5016254;28;20538;-83
2023/03/23 03:00:58;;;;;;;21.93;20.90;;;;;;;;;;5017695;28;20452;-83
2023/03/23 03:03:28;;;;;;;22.70;21.50;;;;;;;;;;5017220;28;20435;-83
2023/03/23 03:06:00;;;;;;;20.90;19.80;;;;;;;;;;5016212;28;20494;-83
2023/03/23 03:08:32;;;;;;;20.83;19.70;;;;;;;;;;5016565;28;20489;-83
2023/03/23 03:11:02;;;;;;;20.70;19.50;;;;;;;;;;5016515;28;20441;-83
2023/03/23 03:13:38;;;;;;;20.70;19.50;;;;;;;;;;5016659;28;20411;-84
2023/03/23 03:16:09;;;;;;;20.97;19.80;;;;;;;;;;5014937;28;20467;-83
2023/03/23 03:18:39;;;;;;;19.90;18.90;;;;;;;;;;5016397;28;20459;-83
2023/03/23 03:21:07;;;;;;;19.80;18.80;;;;;;;;;;5016790;28;20448;-83
2023/03/23 03:23:37;;;;;;;19.20;18.30;;;;;;;;;;5015484;28;20456;-83
2023/03/23 03:26:05;;;;;;;18.97;18.10;;;;;;;;;;5015630;28;20473;-83
2023/03/23 03:28:33;;;;;;;18.87;17.97;;;;;;;;;;5017645;28;20457;-84
2023/03/23 03:31:02;;;;;;;20.37;19.37;;;;;;;;;;5016101;28;20415;-83
2023/03/23 03:33:31;;;;;;;19.80;18.90;;;;;;;;;;5018664;28;20419;-83
2023/03/23 03:35:59;;;;;;;21.10;19.90;;;;;;;;;;5017361;28;20433;-83
2023/03/23 03:38:28;;;;;;;19.90;18.90;;;;;;;;;;5019452;28;20488;-83
2023/03/23 03:40:57;;;;;;;20.10;19.10;;;;;;;;;;5028345;28;20419;-83
2023/03/23 03:43:25;;;;;;;20.13;19.03;;;;;;;;;;5026193;28;20411;-83
2023/03/23 03:45:52;;;;;;;20.90;19.90;;;;;;;;;;5020582;28;20437;-83
2023/03/23 03:48:19;;;;;;;20.97;19.97;;;;;;;;;;5020139;28;20442;-83
2023/03/23 03:50:46;;;;;;;20.73;19.73;;;;;;;;;;5022307;28;20436;-83
2023/03/23 03:53:13;;;;;;;20.57;19.57;;;;;;;;;;5024306;28;20423;-83
2023/03/23 03:55:45;;;;;;;20.50;19.43;;;;;;;;;;5020576;28;20489;-83
2023/03/23 03:58:13;;;;;;;20.40;19.27;;;;;;;;;;5020202;28;20470;-83
2023/03/23 04:00:41;;;;;;;19.80;18.80;;;;;;;;;;5022020;28;20462;-83
2023/03/23 04:03:08;;;;;;;19.40;18.50;;;;;;;;;;5022613;28;20442;-83
2023/03/23 04:05:37;;;;;;;20.27;19.30;;;;;;;;;;5020008;28;20530;-83
2023/03/23 04:08:04;;;;;;;20.40;19.30;;;;;;;;;;5020558;28;20524;-83
2023/03/23 04:10:33;;;;;;;20.83;19.73;;;;;;;;;;5021842;28;20427;-83
2023/03/23 04:13:00;;;;;;;19.23;18.30;;;;;;;;;;5022722;28;20459;-83
2023/03/23 04:15:28;;;;;;;19.80;18.90;;;;;;;;;;5019595;28;20426;-83
2023/03/23 04:17:56;;;;;;;19.83;18.73;;;;;;;;;;5020025;28;20476;-83
2023/03/23 04:20:24;;;;;;;20.13;19.23;;;;;;;;;;5024426;28;20503;-82
2023/03/23 04:22:54;;;;;;;20.00;18.90;;;;;;;;;;5022833;28;20415;-83
2023/03/23 04:25:21;;;;;;;20.10;19.10;;;;;;;;;;5019371;28;20456;-83
2023/03/23 04:27:52;;;;;;;20.17;19.17;;;;;;;;;;5019099;28;20951;-83
2023/03/23 04:30:20;;;;;;;20.53;19.43;;;;;;;;;;5021061;28;20439;-83
2023/03/23 04:32:51;;;;;;;19.13;18.23;;;;;;;;;;5020405;28;20434;-83
2023/03/23 04:35:20;;;;;;;19.47;18.57;;;;;;;;;;5023266;28;20447;-83
2023/03/23 04:37:47;;;;;;;19.60;18.67;;;;;;;;;;5026176;28;20971;-83
2023/03/23 04:40:15;;;;;;;19.63;18.73;;;;;;;;;;5019146;28;20446;-83
2023/03/23 04:42:45;;;;;;;19.23;18.33;;;;;;;;;;5019601;28;20813;-83
2023/03/23 04:45:12;;;;;;;19.87;18.87;;;;;;;;;;5019135;28;20431;-83
2023/03/23 04:47:40;;;;;;;18.70;17.73;;;;;;;;;;5018220;28;20495;-84
2023/03/23 04:50:11;;;;;;;18.63;17.73;;;;;;;;;;5018926;28;20535;-83
2023/03/23 04:52:40;;;;;;;19.70;18.80;;;;;;;;;;5019765;28;20447;-84
2023/03/23 04:55:07;;;;;;;18.73;17.63;;;;;;;;;;5018664;28;20423;-83
2023/03/23 04:57:34;;;;;;;20.80;19.80;;;;;;;;;;5018893;28;20431;-84
2023/03/23 05:00:08;;;;;;;18.93;18.03;;;;;;;;;;5021836;28;20554;-84
2023/03/23 05:02:35;;;;;;;19.03;18.03;;;;;;;;;;5019857;28;20890;-83
2023/03/23 05:05:02;;;;;;;19.07;18.10;;;;;;;;;;5020173;28;20403;-84
2023/03/23 05:07:31;;;;;;;18.20;17.30;;;;;;;;;;5019809;28;20444;-84
2023/03/23 05:09:58;;;;;;;19.03;18.07;;;;;;;;;;5019614;28;20848;-84
2023/03/23 05:12:25;;;;;;;19.00;18.10;;;;;;;;;;5019331;28;20452;-83
2023/03/23 05:14:52;;;;;;;19.20;18.20;;;;;;;;;;5020371;28;20911;-84
2023/03/23 05:17:19;;;;;;;19.10;18.10;;;;;;;;;;5020892;28;20506;-84
2023/03/23 05:19:47;;;;;;;18.20;17.40;;;;;;;;;;5024063;28;20496;-83
2023/03/23 05:22:14;;;;;;;18.73;17.83;;;;;;;;;;5029530;28;20491;-83
2023/03/23 05:24:43;;;;;;;18.33;17.43;;;;;;;;;;5030068;28;20438;-84
2023/03/23 05:27:10;;;;;;;18.63;17.73;;;;;;;;;;5019376;28;20989;-83
2023/03/23 05:29:40;;;;;;;18.93;18.03;;;;;;;;;;5018712;28;20501;-83
2023/03/23 05:32:07;;;;;;;18.70;17.70;;;;;;;;;;5020007;28;20495;-83
2023/03/23 05:34:35;;;;;;;19.53;18.60;;;;;;;;;;5021001;28;20456;-83
2023/03/23 05:37:05;;;;;;;19.20;18.20;;;;;;;;;;5021530;28;20915;-83
2023/03/23 05:39:34;;;;;;;19.60;18.60;;;;;;;;;;5023808;28;20451;-84
2023/03/23 05:42:03;;;;;;;19.03;18.13;;;;;;;;;;5032960;28;20464;-82
2023/03/23 05:44:31;;;;;;;18.73;17.83;;;;;;;;;;5027515;28;20441;-82
2023/03/23 05:46:58;;;;;;;19.03;18.13;;;;;;;;;;5021372;28;20495;-81
2023/03/23 05:49:26;;;;;;;18.83;17.83;;;;;;;;;;5022137;28;20443;-82
2023/03/23 05:51:54;;;;;;;19.70;18.60;;;;;;;;;;5025342;28;21003;-82
2023/03/23 05:54:21;;;;;;;19.47;18.57;;;;;;;;;;5020566;28;20912;-82
2023/03/23 05:56:48;;;;;;;18.43;17.63;;;;;;;;;;5019074;28;20419;-82
2023/03/23 05:59:17;;;;;;;18.50;17.60;;;;;;;;;;5018740;28;20451;-81
2023/03/23 06:01:44;;;;;;;18.77;17.87;;;;;;;;;;5019031;28;20456;-82
2023/03/23 06:04:11;;;;;;;17.90;17.07;;;;;;;;;;5018562;28;20426;-81
2023/03/23 06:06:38;;;;;;;19.70;18.67;;;;;;;;;;5016822;28;20450;-81
2023/03/23 06:09:06;;;;;;;18.60;17.70;;;;;;;;;;5022209;28;20472;-82
2023/03/23 06:11:34;;;;;;;18.77;17.87;;;;;;;;;;5018447;28;20454;-82
2023/03/23 06:14:02;;;;;;;18.63;17.73;;;;;;;;;;5018395;28;20470;-81
2023/03/23 06:16:31;;;;;;;18.30;17.40;;;;;;;;;;5018340;28;20467;-82
2023/03/23 06:19:00;;;;;;;19.27;18.10;;;;;;;;;;5017096;28;20486;-82
2023/03/23 06:21:27;;;;;;;18.27;17.47;;;;;;;;;;5017636;28;20473;-82
2023/03/23 06:23:55;;;;;;;19.13;18.20;;;;;;;;;;5016303;28;20478;-82
2023/03/23 06:26:25;;;;;;;18.63;17.73;;;;;;;;;;5016231;28;20457;-83
2023/03/23 06:28:52;;;;;;;19.70;18.80;;;;;;;;;;5021941;28;20961;-82
2023/03/23 06:31:20;;;;;;;19.40;18.50;;;;;;;;;;5019869;28;20473;-82
2023/03/23 06:33:48;;;;;;;19.87;18.83;;;;;;;;;;5016521;28;20855;-82
2023/03/23 06:36:16;;;;;;;19.10;18.10;;;;;;;;;;5016975;28;20431;-82
2023/03/23 06:38:43;;;;;;;18.87;17.97;;;;;;;;;;5016977;28;20454;-82
2023/03/23 06:41:11;;;;;;;17.80;17.00;;;;;;;;;;5021452;28;20508;-82
2023/03/23 06:43:39;;;;;;;19.73;18.83;;;;;;;;;;5016737;28;20538;-82
2023/03/23 06:46:06;;;;;;;18.07;17.27;;;;;;;;;;5015711;28;20543;-82
2023/03/23 06:48:33;;;;;;;19.23;18.13;;;;;;;;;;5016207;28;20518;-82
2023/03/23 06:51:02;;;;;;;19.70;18.60;;;;;;;;;;5024657;28;20448;-81
2023/03/23 06:53:29;;;;;;;19.20;18.20;;;;;;;;;;5037006;28;20460;-82
2023/03/23 06:55:56;;;;;;;19.23;18.33;;;;;;;;;;5035708;28;20472;-82
2023/03/23 06:58:24;;;;;;;19.60;18.70;;;;;;;;;;5025794;28;20477;-82
2023/03/23 07:00:55;;;;;;;18.57;17.77;;;;;;;;;;5020645;28;20462;-82
2023/03/23 07:03:22;;;;;;;19.77;18.83;;;;;;;;;;5020845;28;20460;-83
2023/03/23 07:05:49;;;;;;;19.07;18.07;;;;;;;;;;5019930;28;20452;-83
2023/03/23 07:08:18;;;;;;;19.30;18.30;;;;;;;;;;5019706;28;20556;-82
2023/03/23 07:10:45;;;;;;;17.70;16.80;;;;;;;;;;5020737;28;20452;-82
2023/03/23 07:13:12;;;;;;;19.80;18.60;;;;;;;;;;5020188;28;20457;-82
2023/03/23 07:15:40;;;;;;;18.97;18.00;;;;;;;;;;5019334;28;20942;-82
2023/03/23 07:18:07;;;;;;;19.17;18.10;;;;;;;;;;5021793;28;20487;-82
2023/03/23 07:20:34;;;;;;;19.13;18.00;;;;;;;;;;5024034;28;20525;-82
2023/03/23 07:23:01;;;;;;;19.77;18.87;;;;;;;;;;5023596;28;20431;-82
2023/03/23 07:25:30;;;;;;;18.93;18.00;;;;;;;;;;5023379;28;20446;-82
2023/03/23 07:27:57;;;;;;;18.90;18.00;;;;;;;;;;5022237;28;20492;-82
2023/03/23 07:30:24;;;;;;;20.47;19.37;;;;;;;;;;5021232;28;20443;-82
2023/03/23 07:32:51;;;;;;;19.50;18.50;;;;;;;;;;5022567;28;20830;-82
2023/03/23 07:35:18;;;;;;;19.70;18.43;;;;;;;;;;5022104;28;20447;-82
2023/03/23 07:37:48;;;;;;;18.40;17.50;;;;;;;;;;5019394;28;20430;-83
2023/03/23 07:40:16;;;;;;;18.70;17.73;;;;;;;;;;5019511;28;20562;-83
2023/03/23 07:42:45;;;;;;;19.57;18.47;;;;;;;;;;5020878;28;20458;-83
2023/03/23 07:45:12;;;;;;;19.30;18.30;;;;;;;;;;5020394;28;20499;-82
2023/03/23 07:47:39;;;;;;;19.43;18.50;;;;;;;;;;5019236;28;20455;-82
2023/03/23 07:50:07;;;;;;;19.70;18.67;;;;;;;;;;5019552;28;20990;-82
2023/03/23 07:52:34;;;;;;;19.03;18.03;;;;;;;;;;5019190;28;20472;-83
2023/03/23 07:55:02;;;;;;;18.40;17.60;;;;;;;;;;5021315;28;20467;-83
2023/03/23 07:57:29;;;;;;;19.23;18.13;;;;;;;;;;5019031;28;20459;-82
2023/03/23 07:59:59;;;;;;;19.87;18.77;;;;;;;;;;5020014;28;20500;-83
2023/03/23 08:02:26;;;;;;;20.80;19.60;;;;;;;;;;5019396;28;20501;-83
2023/03/23 08:04:56;;;;;;;20.10;18.90;;;;;;;;;;5022022;28;20994;-82
2023/03/23 08:07:23;;;;;;;19.03;17.83;;;;;;;;;;5019364;28;20454;-83
2023/03/23 08:09:50;;;;;;;18.80;17.80;;;;;;;;;;5018327;28;20550;-82
2023/03/23 08:12:17;;;;;;;19.83;18.37;;;;;;;;;;5019599;28;20460;-84
2023/03/23 08:14:44;;;;;;;21.20;19.90;;;;;;;;;;5019077;28;20471;-82
2023/03/23 08:17:12;;;;;;;20.10;18.90;;;;;;;;;;5018770;28;20478;-82
2023/03/23 08:19:40;;;;;;;19.20;18.20;;;;;;;;;;5018538;28;20481;-82
2023/03/23 08:22:07;;;;;;;19.07;18.00;;;;;;;;;;5019138;28;20536;-83
2023/03/23 08:24:35;;;;;;;20.23;18.73;;;;;;;;;;5019105;28;20430;-82
2023/03/23 08:27:02;;;;;;;19.73;18.63;;;;;;;;;;5017566;28;20463;-82
2023/03/23 08:29:29;;;;;;;18.97;18.07;;;;;;;;;;5018405;28;20501;-82
2023/03/23 08:31:56;;;;;;;20.47;19.10;;;;;;;;;;5018665;28;20427;-82
2023/03/23 08:34:25;;;;;;;19.80;18.60;;;;;;;;;;5018753;28;20457;-82
2023/03/23 08:36:52;;;;;;;18.73;17.63;;;;;;;;;;5018068;28;20464;-82
2023/03/23 08:39:19;;;;;;;18.70;17.60;;;;;;;;;;5018194;28;20486;-81
2023/03/23 08:41:46;;;;;;;19.13;18.17;;;;;;;;;;5018563;28;20967;-82
2023/03/23 08:44:13;;;;;;;20.27;19.07;;;;;;;;;;5018314;28;20423;-81
2023/03/23 08:46:41;;;;;;;18.50;17.60;;;;;;;;;;5017940;28;20829;-82
2023/03/23 08:49:08;;;;;;;21.03;19.63;;;;;;;;;;5018745;28;20492;-83
2023/03/23 08:51:36;;;;;;;19.83;18.73;;;;;;;;;;5017235;28;20420;-80
2023/03/23 08:54:03;;;;;;;20.37;19.17;;;;;;;;;;5017234;28;20972;-81
2023/03/23 08:56:31;;;;;;;19.70;18.60;;;;;;;;;;5019662;28;20423;-82
2023/03/23 08:58:58;;;;;;;20.77;19.47;;;;;;;;;;5019963;28;20468;-82
2023/03/23 09:01:26;;;;;;;21.53;20.23;;;;;;;;;;5018176;28;20546;-82
2023/03/23 09:03:54;;;;;;;20.83;19.70;;;;;;;;;;5018454;28;20487;-82
2023/03/23 09:06:21;;;;;;;20.77;19.60;;;;;;;;;;5017474;28;20419;-82
2023/03/23 09:08:49;;;;;;;20.40;19.13;;;;;;;;;;5017800;28;20533;-82
2023/03/23 09:11:17;;;;;;;19.83;18.67;;;;;;;;;;5018760;28;20444;-82
2023/03/23 09:13:44;;;;;;;20.93;19.33;;;;;;;;;;5018644;28;20912;-82
2023/03/23 09:16:11;;;;;;;21.07;19.80;;;;;;;;;;5018464;28;20427;-82
2023/03/23 09:18:38;;;;;;;21.30;19.73;;;;;;;;;;5018368;28;20481;-84
2023/03/23 09:21:05;;;;;;;21.27;19.93;;;;;;;;;;5017896;28;20488;-83
2023/03/23 09:23:32;;;;;;;21.13;19.60;;;;;;;;;;5018486;28;20422;-82
2023/03/23 09:26:03;;;;;;;21.43;20.20;;;;;;;;;;5018377;28;20774;-82
2023/03/23 09:28:30;;;;;;;20.83;19.63;;;;;;;;;;5018792;28;20497;-82
2023/03/23 09:30:58;;;;;;;19.43;18.33;;;;;;;;;;5017657;28;20546;-82
2023/03/23 09:33:25;;;;;;;20.80;19.80;;;;;;;;;;5018318;28;20431;-82
2023/03/23 09:35:52;;;;;;;22.03;20.40;;;;;;;;;;5017929;28;20427;-82
2023/03/23 09:38:21;;;;;;;21.57;20.37;;;;;;;;;;5017817;28;20501;-82
2023/03/23 09:40:49;;;;;;;20.70;19.50;;;;;;;;;;5017164;28;20455;-82
2023/03/23 09:43:29;;;;;;;20.07;18.97;;;;;;;;;;5018010;28;20435;-82
2023/03/23 09:46:00;;;;;;;20.87;19.87;;;;;;;;;;5017525;28;20792;-82
2023/03/23 09:48:38;;;;;;;21.70;20.30;;;;;;;;;;5016675;28;20459;-82
2023/03/23 09:51:09;;;;;;;21.07;19.73;;;;;;;;;;5017071;28;20407;-82
2023/03/23 09:53:39;;;;;;;20.97;19.67;;;;;;;;;;5017244;28;20439;-82
2023/03/23 09:56:10;;;;;;;21.47;20.37;;;;;;;;;;5016796;28;20447;-82
2023/03/23 09:58:43;;;;;;;20.87;19.67;;;;;;;;;;5017352;28;20447;-82
2023/03/23 10:01:15;;;;;;;21.27;20.17;;;;;;;;;;5016896;28;20472;-82
2023/03/23 10:03:43;;;;;;;22.10;20.70;;;;;;;;;;5018094;28;20467;-82
2023/03/23 10:06:12;;;;;;;19.80;18.73;;;;;;;;;;5017628;28;20430;-82
2023/03/23 10:08:40;;;;;;;20.73;19.60;;;;;;;;;;5017453;28;20454;-82
2023/03/23 10:11:18;;;;;;;20.93;19.80;;;;;;;;;;5018600;28;20419;-82
2023/03/23 10:13:54;;;;;;;20.37;18.97;;;;;;;;;;5020662;28;20888;-82
2023/03/23 10:16:22;;;;;;;21.67;20.17;;;;;;;;;;5016584;28;20534;-82
2023/03/23 10:18:51;;;;;;;22.73;21.07;;;;;;;;;;5016053;28;21037;-82
2023/03/23 10:21:21;;;;;;;20.37;19.20;;;;;;;;;;5016575;28;20484;-82
2023/03/23 10:23:53;;;;;;;21.50;20.20;;;;;;;;;;5016927;28;20816;-82
2023/03/23 10:26:25;;;;;;;22.60;21.30;;;;;;;;;;5015951;28;20445;-82
2023/03/23 10:28:56;;;;;;;21.83;20.33;;;;;;;;;;5016256;28;20455;-82
2023/03/23 10:31:25;;;;;;;21.60;20.30;;;;;;;;;;5016348;28;20795;-82
2023/03/23 10:33:54;;;;;;;20.57;19.47;;;;;;;;;;5016728;28;20925;-82
2023/03/23 10:36:24;;;;;;;21.30;19.87;;;;;;;;;;5016298;28;20424;-82
2023/03/23 10:38:54;;;;;;;21.10;19.40;;;;;;;;;;5015917;28;20458;-82
2023/03/23 10:41:21;;;;;;;19.47;18.47;;;;;;;;;;5016631;28;20439;-82
2023/03/23 10:43:50;;;;;;;21.13;19.83;;;;;;;;;;5016470;28;20811;-82
2023/03/23 10:46:23;;;;;;;19.80;18.70;;;;;;;;;;5015922;28;20450;-82
2023/03/23 10:48:50;;;;;;;19.80;18.53;;;;;;;;;;5016154;28;20518;-82
2023/03/23 10:51:20;;;;;;;19.43;18.23;;;;;;;;;;5015810;28;21017;-82
2023/03/23 10:53:50;;;;;;;20.40;19.10;;;;;;;;;;5016610;28;20521;-82
2023/03/23 10:56:23;;;;;;;21.53;20.00;;;;;;;;;;5015057;28;20415;-82
2023/03/23 10:58:50;;;;;;;19.57;18.37;;;;;;;;;;5015973;28;20436;-82
2023/03/23 11:01:19;;;;;;;20.20;18.80;;;;;;;;;;5016477;28;20522;-82
2023/03/23 11:03:49;;;;;;;21.40;20.20;;;;;;;;;;5018744;28;20494;-82
2023/03/23 11:06:21;;;;;;;20.53;19.20;;;;;;;;;;5016372;28;20850;-88
2023/03/23 11:08:50;;;;;;;19.63;18.33;;;;;;;;;;5017104;28;20458;-82
2023/03/23 11:11:18;;;;;;;18.17;17.33;;;;;;;;;;5015894;28;20427;-82
2023/03/23 11:13:46;;;;;;;18.83;17.93;;;;;;;;;;5015895;28;20427;-82
2023/03/23 11:16:23;;;;;;;21.30;20.30;;;;;;;;;;5015716;28;20800;-82
2023/03/23 11:18:53;;;;;;;21.50;20.30;;;;;;;;;;5016065;28;20496;-84
2023/03/23 11:21:22;;;;;;;21.70;20.60;;;;;;;;;;5015733;28;20488;-81
2023/03/23 11:23:50;;;;;;;22.70;21.50;;;;;;;;;;5015751;28;20423;-81
2023/03/23 11:26:19;;;;;;;21.67;20.47;;;;;;;;;;5015542;28;20471;-81
2023/03/23 11:28:49;;;;;;;26.47;25.17;;;;;;;;;;5015306;28;20476;-81
2023/03/23 11:31:17;;;;;;;32.50;30.27;;;;;;;;;;5015732;28;20432;-81
2023/03/23 11:33:49;;;;;;;63.77;57.50;;;;;;;;;;5025465;28;20466;-81
2023/03/23 11:36:18;;;;;;;27.00;25.60;;;;;;;;;;5033683;28;20419;-81
2023/03/23 11:38:45;;;;;;;30.23;28.53;;;;;;;;;;5015993;28;20480;-83
2023/03/23 11:41:13;;;;;;;30.70;29.10;;;;;;;;;;5001574;28;20542;-81
2023/03/23 11:43:45;;;;;;;27.40;26.10;;;;;;;;;;4997240;28;20453;-81
2023/03/23 11:46:16;;;;;;;27.67;26.10;;;;;;;;;;4996916;28;20471;-81
2023/03/23 11:48:46;;;;;;;26.10;24.47;;;;;;;;;;4997689;28;20452;-82
2023/03/23 11:51:15;;;;;;;25.27;23.90;;;;;;;;;;4997723;28;20449;-82
2023/03/23 11:53:47;;;;;;;23.97;22.87;;;;;;;;;;4996480;28;20424;-82
2023/03/23 11:56:19;;;;;;;24.93;23.73;;;;;;;;;;4996644;28;20426;-85
2023/03/23 11:58:46;;;;;;;22.63;21.53;;;;;;;;;;4996193;28;20460;-82
2023/03/23 12:01:17;;;;;;;22.37;21.37;;;;;;;;;;4996850;28;20460;-81
2023/03/23 12:03:53;;;;;;;21.43;20.27;;;;;;;;;;5001474;28;20445;-81
2023/03/23 12:06:26;;;;;;;20.73;19.67;;;;;;;;;;5003002;28;20928;-81
2023/03/23 12:09:00;;;;;;;19.03;18.10;;;;;;;;;;5003667;28;20499;-81
2023/03/23 12:11:32;;;;;;;19.80;18.70;;;;;;;;;;5001148;28;20865;-81
2023/03/23 12:14:10;;;;;;;19.20;18.30;;;;;;;;;;5000585;28;20458;-81
2023/03/23 12:16:43;;;;;;;20.30;19.30;;;;;;;;;;5000260;28;20420;-81
2023/03/23 12:19:13;;;;;;;19.63;18.37;;;;;;;;;;5000499;28;20454;-81
2023/03/23 12:21:45;;;;;;;18.77;17.87;;;;;;;;;;4999108;28;20484;-81
2023/03/23 12:24:18;;;;;;;18.43;17.53;;;;;;;;;;5000833;28;20449;-81
2023/03/23 12:26:49;;;;;;;18.27;17.43;;;;;;;;;;4999417;28;20457;-81
2023/03/23 12:29:24;;;;;;;18.87;17.90;;;;;;;;;;4999672;28;20477;-81
2023/03/23 12:31:56;;;;;;;21.07;19.50;;;;;;;;;;4999459;28;20450;-81
2023/03/23 12:34:28;;;;;;;20.10;18.77;;;;;;;;;;4999589;28;20408;-81
2023/03/23 12:37:00;;;;;;;20.90;19.60;;;;;;;;;;4999399;28;20442;-81
2023/03/23 12:39:43;;;;;;;20.50;19.30;;;;;;;;;;5008696;28;20513;-84
2023/03/23 12:42:13;;;;;;;21.33;20.10;;;;;;;;;;5010564;28;20494;-85
2023/03/23 12:44:43;;;;;;;20.93;19.63;;;;;;;;;;5019664;28;20556;-85
2023/03/23 12:47:20;;;;;;;20.37;19.27;;;;;;;;;;5019541;28;20926;-84
2023/03/23 12:49:50;;;;;;;19.90;18.80;;;;;;;;;;5018827;28;20813;-85
2023/03/23 12:52:21;;;;;;;19.60;18.63;;;;;;;;;;5018882;28;20987;-86
2023/03/23 12:54:54;;;;;;;19.87;18.77;;;;;;;;;;5018996;28;20443;-85
2023/03/23 12:57:27;;;;;;;20.10;19.10;;;;;;;;;;5018240;28;20423;-85
2023/03/23 12:59:56;;;;;;;19.13;18.13;;;;;;;;;;5019278;28;20411;-85
2023/03/23 13:02:27;;;;;;;20.17;19.07;;;;;;;;;;5019074;28;20484;-85
2023/03/23 13:05:01;;;;;;;19.63;18.63;;;;;;;;;;5018274;28;20930;-86
2023/03/23 13:07:30;;;;;;;22.80;20.97;;;;;;;;;;5017535;28;20542;-86
2023/03/23 13:10:03;;;;;;;22.10;20.90;;;;;;;;;;5017977;28;20501;-85
2023/03/23 13:12:32;;;;;;;24.07;22.77;;;;;;;;;;5018339;28;20437;-86
2023/03/23 13:15:05;;;;;;;24.80;23.47;;;;;;;;;;5016175;28;20457;-83
2023/03/23 13:17:37;;;;;;;24.70;23.60;;;;;;;;;;5016056;28;20872;-85
2023/03/23 13:20:19;;;;;;;29.40;28.00;;;;;;;;;;5017191;28;20888;-86
2023/03/23 13:22:51;;;;;;;30.03;28.73;;;;;;;;;;5017683;28;20468;-80
2023/03/23 13:25:19;;;;;;;34.30;32.70;;;;;;;;;;5017817;28;20507;-84
2023/03/23 13:27:59;;;;;;;32.83;30.97;;;;;;;;;;5016664;28;20863;-85
2023/03/23 13:30:28;;;;;;;32.30;30.90;;;;;;;;;;5020765;28;20428;-81
2023/03/23 13:33:03;;;;;;;31.70;30.20;;;;;;;;;;5019138;28;20419;-82
2023/03/23 13:35:35;;;;;;;32.80;31.40;;;;;;;;;;5019869;28;20492;-82
2023/03/23 13:38:02;;;;;;;33.17;31.67;;;;;;;;;;5019764;28;20458;-82
2023/03/23 13:40:31;;;;;;;32.40;31.00;;;;;;;;;;5018609;28;20473;-82
2023/03/23 13:43:01;;;;;;;37.57;35.67;;;;;;;;;;5019079;28;20480;-82
2023/03/23 13:45:38;;;;;;;36.83;35.13;;;;;;;;;;5018196;28;20423;-82
2023/03/23 13:48:07;;;;;;;33.83;32.33;;;;;;;;;;5018590;28;20859;-82
2023/03/23 13:50:45;;;;;;;35.27;33.63;;;;;;;;;;5018568;28;20467;-82
2023/03/23 13:53:15;;;;;;;37.00;35.20;;;;;;;;;;5017751;28;20450;-82
2023/03/23 13:55:43;;;;;;;36.57;34.60;;;;;;;;;;5017694;28;20442;-82
2023/03/23 13:58:23;;;;;;;37.97;36.07;;;;;;;;;;5017346;28;21163;-82
2023/03/23 14:00:51;;;;;;;36.70;35.00;;;;;;;;;;5018345;28;20436;-82
2023/03/23 14:03:20;;;;;;;36.93;35.03;;;;;;;;;;5018531;28;20463;-82
2023/03/23 14:05:50;;;;;;;38.03;36.23;;;;;;;;;;5018242;28;20439;-82
2023/03/23 14:08:24;;;;;;;37.57;35.67;;;;;;;;;;5020283;28;20480;-82
2023/03/23 14:10:53;;;;;;;37.87;36.07;;;;;;;;;;5017547;28;20931;-82
2023/03/23 14:13:24;;;;;;;37.63;35.80;;;;;;;;;;5018901;28;20508;-82
2023/03/23 14:15:57;;;;;;;37.67;35.83;;;;;;;;;;5016069;28;20465;-82
2023/03/23 14:18:26;;;;;;;36.90;35.20;;;;;;;;;;5016781;28;20455;-82
2023/03/23 14:20:54;;;;;;;33.40;31.90;;;;;;;;;;5016369;28;20412;-81
2023/03/23 14:23:21;;;;;;;31.83;30.33;;;;;;;;;;5016154;28;20482;-82
2023/03/23 14:25:56;;;;;;;32.10;30.60;;;;;;;;;;5015650;28;20481;-83
2023/03/23 14:28:24;;;;;;;31.37;29.87;;;;;;;;;;5016081;28;20439;-82